Terminal Aerodrome Forecast
Issued by NWS Wilmington, OH

Current Version | Previous Version | Text Only | Print | Product List | Glossary Off
Versions: 1 2 3 4 5 6 7 8 9 10 11 12 13 14 15 16 17 18 19 20 21 22 23 24

527
FTUS41 KILN 231741
TAFCMH
TAF
KCMH 231741Z 2318/2418 29006KT P6SM SCT050 BKN250
     FM240000 02005KT P6SM SCT100 BKN200
     FM240900 03005KT 5SM BR BKN025
     FM241400 04008KT P6SM BKN040=

USA.gov is the U.S. government's official web portal to all federal, state and local government web resources and services.